Time;durP1;ratioP1;P1;durP2;ratioP2;P2;SDS_P1;SDS_P2;PMS_P1;PMS_P2;Temp;Humidity;BMP_temperature;BMP_pressure;BME280_temperature;BME280_humidity;BME280_pressure;Samples;Min_cycle;Max_cycle;Signal;HPM_P1;HPM_P2
2022/10/06 00:01:59;;;;;;;;;;;13.60;99.90;;;;;;5049351;28;19912;-85
2022/10/06 00:04:24;;;;;;;;;;;13.40;99.90;;;;;;5031983;28;19940;-85
2022/10/06 00:06:50;;;;;;;;;;;13.40;99.90;;;;;;5034514;28;19908;-85
2022/10/06 00:09:15;;;;;;;;;;;13.40;99.90;;;;;;5049360;28;19924;-84
2022/10/06 00:11:41;;;;;;;;;;;13.40;99.90;;;;;;5030333;28;19917;-85
2022/10/06 00:14:07;;;;;;;;;;;13.50;99.90;;;;;;5050457;28;20015;-85
2022/10/06 00:16:32;;;;;;;;;;;13.60;99.90;;;;;;5049323;28;20042;-85
2022/10/06 00:18:58;;;;;;;;;;;13.60;99.90;;;;;;5049604;28;19916;-85
2022/10/06 00:21:23;;;;;;;;;;;13.60;99.90;;;;;;5049128;28;19920;-85
2022/10/06 00:23:49;;;;;;;;;;;13.60;99.90;;;;;;5032757;28;20062;-85
2022/10/06 00:26:15;;;;;;;;;;;13.70;99.90;;;;;;5050059;28;20460;-85
2022/10/06 00:28:47;;;;;;;;;;;13.60;99.90;;;;;;5034396;28;20040;-85
2022/10/06 00:31:13;;;;;;;;;;;13.50;99.90;;;;;;5049238;28;19912;-85
2022/10/06 00:33:38;;;;;;;;;;;13.50;99.90;;;;;;5032816;28;20497;-85
2022/10/06 00:36:04;;;;;;;;;;;13.50;99.90;;;;;;5048867;28;19908;-85
2022/10/06 00:38:30;;;;;;;;;;;13.40;99.90;;;;;;5048940;28;19913;-85
2022/10/06 00:40:55;;;;;;;;;;;13.30;99.90;;;;;;5033485;28;19999;-85
2022/10/06 00:43:53;;;;;;;;;;;13.30;99.90;;;;;;5032391;28;20485;-85
2022/10/06 00:46:25;;;;;;;;;;;13.20;99.90;;;;;;4998399;28;19916;-85
2022/10/06 00:48:53;;;;;;;;;;;13.10;99.90;;;;;;5048684;28;20257;-85
2022/10/06 00:51:19;;;;;;;;;;;13.00;99.90;;;;;;5048548;28;19938;-85
2022/10/06 00:53:45;;;;;;;;;;;13.10;99.90;;;;;;5048204;28;20062;-85
2022/10/06 00:56:11;;;;;;;;;;;13.00;99.90;;;;;;5047669;28;20090;-85
2022/10/06 00:58:37;;;;;;;;;;;13.00;99.90;;;;;;5047907;28;20371;-85
2022/10/06 01:01:02;;;;;;;;;;;13.00;99.90;;;;;;5048400;28;19948;-85
2022/10/06 01:03:37;;;;;;;;;;;13.00;99.90;;;;;;5031604;28;20034;-84
2022/10/06 01:06:04;;;;;;;;;;;12.90;99.90;;;;;;5040552;28;20032;-85
2022/10/06 01:08:30;;;;;;;;;;;12.80;99.90;;;;;;5048281;28;19913;-85
2022/10/06 01:10:55;;;;;;;;;;;12.70;99.90;;;;;;5031740;28;20060;-85
2022/10/06 01:13:21;;;;;;;;;;;12.80;99.90;;;;;;5048096;28;20042;-85
2022/10/06 01:15:50;;;;;;;;;;;12.80;99.90;;;;;;5048011;28;19941;-85
2022/10/06 01:18:18;;;;;;;;;;;12.80;99.90;;;;;;5049981;28;20007;-85
2022/10/06 01:20:50;;;;;;;;;;;12.90;99.90;;;;;;5048451;28;19995;-85
2022/10/06 01:23:16;;;;;;;;;;;12.90;99.90;;;;;;5048063;28;19923;-85
2022/10/06 01:25:42;;;;;;;;;;;12.90;99.90;;;;;;5065212;28;19913;-85
2022/10/06 01:28:09;;;;;;;;;;;12.90;99.90;;;;;;5048596;28;19948;-85
2022/10/06 01:30:40;;;;;;;;;;;13.00;99.90;;;;;;5048367;28;20015;-84
2022/10/06 01:33:06;;;;;;;;;;;13.00;99.90;;;;;;5047481;28;20000;-85
2022/10/06 01:35:32;;;;;;;;;;;12.90;99.90;;;;;;5047784;28;20088;-85
2022/10/06 01:37:59;;;;;;;;;;;12.90;99.90;;;;;;5048772;28;20046;-85
2022/10/06 01:40:27;;;;;;;;;;;13.00;99.90;;;;;;5048305;28;20530;-85
2022/10/06 01:46:22;;;;;;;;;;;12.80;99.90;;;;;;5046731;28;19923;-85
2022/10/06 01:48:48;;;;;;;;;;;12.80;99.90;;;;;;5034895;28;20110;-85
2022/10/06 01:51:15;;;;;;;;;;;12.70;99.90;;;;;;5047449;28;19912;-85
2022/10/06 01:53:41;;;;;;;;;;;12.80;99.90;;;;;;5034048;28;19909;-85
2022/10/06 01:56:06;;;;;;;;;;;12.90;99.90;;;;;;5035899;28;20485;-84
2022/10/06 01:58:32;;;;;;;;;;;13.00;99.90;;;;;;5038143;28;19917;-85
2022/10/06 02:01:02;;;;;;;;;;;13.10;99.90;;;;;;5047736;28;19913;-85
2022/10/06 02:03:27;;;;;;;;;;;13.20;99.90;;;;;;5047190;28;20058;-85
2022/10/06 02:05:54;;;;;;;;;;;13.30;99.90;;;;;;5047248;28;25136;-85
2022/10/06 02:08:21;;;;;;;;;;;13.30;99.90;;;;;;5058881;28;19909;-85
2022/10/06 02:10:47;;;;;;;;;;;13.30;99.90;;;;;;5047082;28;20032;-85
2022/10/06 02:13:18;;;;;;;;;;;13.30;99.90;;;;;;5047661;28;19957;-85
2022/10/06 02:15:44;;;;;;;;;;;13.30;99.90;;;;;;5047840;28;19916;-85
2022/10/06 02:18:11;;;;;;;;;;;13.40;99.90;;;;;;5049309;28;19913;-85
2022/10/06 02:20:37;;;;;;;;;;;13.40;99.90;;;;;;5030948;28;20031;-85
2022/10/06 02:23:02;;;;;;;;;;;13.40;99.90;;;;;;5030778;28;20721;-85
2022/10/06 02:25:28;;;;;;;;;;;13.40;99.90;;;;;;5048696;28;19923;-85
2022/10/06 02:27:54;;;;;;;;;;;13.50;99.90;;;;;;5031415;28;20348;-85
2022/10/06 02:30:20;;;;;;;;;;;13.60;99.90;;;;;;5047656;28;20070;-84
2022/10/06 02:32:46;;;;;;;;;;;13.70;99.90;;;;;;5047137;28;20050;-85
2022/10/06 02:35:12;;;;;;;;;;;13.80;99.90;;;;;;5047213;28;19916;-85
2022/10/06 02:37:39;;;;;;;;;;;13.80;99.90;;;;;;5046356;28;20094;-85
2022/10/06 02:40:06;;;;;;;;;;;13.80;99.90;;;;;;5046942;28;20317;-85
2022/10/06 02:42:34;;;;;;;;;;;13.90;99.90;;;;;;5047055;28;20500;-84
2022/10/06 02:45:00;;;;;;;;;;;13.90;99.90;;;;;;5046523;28;20791;-85
2022/10/06 02:47:46;;;;;;;;;;;14.00;99.90;;;;;;5035205;28;20035;-85
2022/10/06 02:50:12;;;;;;;;;;;14.00;99.90;;;;;;5039256;28;20011;-85
2022/10/06 02:52:41;;;;;;;;;;;14.00;99.90;;;;;;5046430;28;20074;-85
2022/10/06 02:55:07;;;;;;;;;;;14.00;99.90;;;;;;5029503;28;20050;-85
2022/10/06 02:57:33;;;;;;;;;;;14.00;99.90;;;;;;5046406;28;20435;-85
2022/10/06 02:59:59;;;;;;;;;;;14.00;99.90;;;;;;5031959;28;19904;-84
2022/10/06 03:02:29;;;;;;;;;;;14.00;99.90;;;;;;5030065;28;19908;-84
2022/10/06 03:04:54;;;;;;;;;;;14.00;99.90;;;;;;5031171;28;19961;-85
2022/10/06 03:07:20;;;;;;;;;;;14.00;99.90;;;;;;5029988;28;20414;-85
2022/10/06 03:09:46;;;;;;;;;;;13.90;99.90;;;;;;5046730;28;20272;-85
2022/10/06 03:12:11;;;;;;;;;;;13.90;99.90;;;;;;5046444;28;25122;-84
2022/10/06 03:14:41;;;;;;;;;;;13.90;99.90;;;;;;5046067;28;20039;-84
2022/10/06 03:17:10;;;;;;;;;;;13.90;99.90;;;;;;5046090;28;20020;-84
2022/10/06 03:19:42;;;;;;;;;;;13.90;99.90;;;;;;5127856;27;20030;-84
2022/10/06 03:22:09;;;;;;;;;;;13.80;99.90;;;;;;5030500;28;20125;-84
2022/10/06 03:24:53;;;;;;;;;;;13.80;99.90;;;;;;5138170;27;24050;-84
2022/10/06 03:27:20;;;;;;;;;;;13.80;99.90;;;;;;5049768;28;19995;-84
2022/10/06 03:29:46;;;;;;;;;;;13.80;99.90;;;;;;5033881;28;19905;-84
2022/10/06 03:32:12;;;;;;;;;;;13.70;99.90;;;;;;5049934;28;20169;-84
2022/10/06 03:34:38;;;;;;;;;;;13.70;99.90;;;;;;5031747;28;20119;-84
2022/10/06 03:37:07;;;;;;;;;;;13.70;99.90;;;;;;5049583;28;20042;-84
2022/10/06 03:39:33;;;;;;;;;;;13.60;99.90;;;;;;5049646;28;19909;-84
2022/10/06 03:41:59;;;;;;;;;;;13.70;99.90;;;;;;5032552;28;20043;-84
2022/10/06 03:44:25;;;;;;;;;;;13.70;99.90;;;;;;5048805;28;19957;-83
2022/10/06 03:46:51;;;;;;;;;;;13.60;99.90;;;;;;5034279;28;20032;-84
2022/10/06 03:49:18;;;;;;;;;;;13.60;99.90;;;;;;5049780;28;20024;-84
2022/10/06 03:51:44;;;;;;;;;;;13.60;99.90;;;;;;5032508;28;19917;-84
2022/10/06 03:54:22;;;;;;;;;;;13.60;99.90;;;;;;5048989;28;19919;-84
2022/10/06 03:56:50;;;;;;;;;;;13.60;99.90;;;;;;5048794;28;19953;-84
2022/10/06 03:59:18;;;;;;;;;;;13.60;99.90;;;;;;5034036;28;19909;-84
2022/10/06 04:01:46;;;;;;;;;;;13.50;99.90;;;;;;5048696;28;20032;-84
2022/10/06 04:04:15;;;;;;;;;;;13.50;99.90;;;;;;5032687;28;19995;-84
2022/10/06 04:06:43;;;;;;;;;;;13.50;99.90;;;;;;5049287;28;20355;-83
2022/10/06 04:09:13;;;;;;;;;;;13.50;99.90;;;;;;5032756;28;20034;-84
2022/10/06 04:11:39;;;;;;;;;;;13.50;99.90;;;;;;5049055;28;20033;-84
2022/10/06 04:14:07;;;;;;;;;;;13.50;99.90;;;;;;5049080;28;20036;-84
2022/10/06 04:16:34;;;;;;;;;;;13.50;99.90;;;;;;5033511;28;20038;-84
2022/10/06 04:19:03;;;;;;;;;;;13.50;99.90;;;;;;5048544;28;19915;-84
2022/10/06 04:21:30;;;;;;;;;;;13.50;99.90;;;;;;5048915;28;20051;-84
2022/10/06 04:23:57;;;;;;;;;;;13.40;99.90;;;;;;5048506;28;19993;-83
2022/10/06 04:26:25;;;;;;;;;;;13.30;99.90;;;;;;5032464;28;20031;-84
2022/10/06 04:28:51;;;;;;;;;;;13.20;99.90;;;;;;5049037;28;20032;-84
2022/10/06 04:31:21;;;;;;;;;;;13.20;99.90;;;;;;5048252;28;20032;-84
2022/10/06 04:33:49;;;;;;;;;;;13.10;99.90;;;;;;5031487;28;19909;-84
2022/10/06 04:36:21;;;;;;;;;;;13.10;99.90;;;;;;5047695;28;20024;-83
2022/10/06 04:42:15;;;;;;;;;;;13.00;99.90;;;;;;5034723;28;19916;-85
2022/10/06 04:44:41;;;;;;;;;;;12.90;99.90;;;;;;5038889;28;19913;-84
2022/10/06 04:47:07;;;;;;;;;;;12.90;99.90;;;;;;5048349;28;19909;-84
2022/10/06 04:49:32;;;;;;;;;;;12.90;99.90;;;;;;5038498;28;19908;-84
2022/10/06 04:51:58;;;;;;;;;;;12.90;99.90;;;;;;5034504;28;19964;-84
2022/10/06 04:54:25;;;;;;;;;;;12.90;99.90;;;;;;5047753;28;20279;-83
2022/10/06 04:56:55;;;;;;;;;;;12.90;99.90;;;;;;5048171;28;19988;-84
2022/10/06 05:00:21;;;;;;;;;;;12.80;99.90;;;;;;5047760;28;19915;-84
2022/10/06 05:02:10;;;;;;;;;;;12.80;99.90;;;;;;5044835;28;24103;-84
2022/10/06 05:04:36;;;;;;;;;;;12.80;99.90;;;;;;5047757;28;20454;-84
2022/10/06 05:07:01;;;;;;;;;;;12.70;99.90;;;;;;5047973;28;20362;-84
2022/10/06 05:09:27;;;;;;;;;;;12.70;99.90;;;;;;5031072;28;19958;-84
2022/10/06 05:11:54;;;;;;;;;;;12.70;99.90;;;;;;5047624;28;19966;-83
2022/10/06 05:14:20;;;;;;;;;;;12.60;99.90;;;;;;5047671;28;19909;-84
2022/10/06 05:16:48;;;;;;;;;;;12.70;99.90;;;;;;5032880;28;20408;-83
2022/10/06 05:19:14;;;;;;;;;;;12.70;99.90;;;;;;5047471;28;24078;-84
2022/10/06 05:21:40;;;;;;;;;;;12.70;99.90;;;;;;5031255;28;25072;-84
2022/10/06 05:24:09;;;;;;;;;;;12.70;99.90;;;;;;5030212;28;19912;-84
2022/10/06 05:26:35;;;;;;;;;;;12.60;99.90;;;;;;5030135;28;20348;-83
2022/10/06 05:29:03;;;;;;;;;;;12.60;99.90;;;;;;5046824;28;19913;-84
2022/10/06 05:31:30;;;;;;;;;;;12.60;99.90;;;;;;5043594;28;20005;-86
2022/10/06 05:33:57;;;;;;;;;;;12.60;99.90;;;;;;5032901;28;19913;-86
2022/10/06 05:36:25;;;;;;;;;;;12.60;99.90;;;;;;5031628;28;19937;-86
2022/10/06 05:38:53;;;;;;;;;;;12.60;99.90;;;;;;5029995;28;20332;-86
2022/10/06 05:41:20;;;;;;;;;;;12.60;99.90;;;;;;5040286;27;19923;-86
2022/10/06 05:43:47;;;;;;;;;;;12.60;99.90;;;;;;5033193;28;19977;-86
2022/10/06 05:46:16;;;;;;;;;;;12.60;99.90;;;;;;5042071;28;19915;-86
2022/10/06 05:48:45;;;;;;;;;;;12.50;99.90;;;;;;5063550;28;20322;-85
2022/10/06 05:51:11;;;;;;;;;;;12.50;99.90;;;;;;5047280;28;19912;-86
2022/10/06 05:53:37;;;;;;;;;;;12.50;99.90;;;;;;5047192;28;19915;-86
2022/10/06 05:56:05;;;;;;;;;;;12.50;99.90;;;;;;5126398;27;19908;-85
2022/10/06 05:58:32;;;;;;;;;;;12.50;99.90;;;;;;5042519;28;24080;-85
2022/10/06 06:01:05;;;;;;;;;;;12.50;99.90;;;;;;5046070;28;21349;-85
2022/10/06 06:03:31;;;;;;;;;;;12.50;99.90;;;;;;5047538;28;20799;-86
2022/10/06 06:05:56;;;;;;;;;;;12.50;99.90;;;;;;5029968;28;19905;-85
2022/10/06 06:08:22;;;;;;;;;;;12.50;99.90;;;;;;5048680;27;24086;-85
2022/10/06 06:10:48;;;;;;;;;;;12.50;99.90;;;;;;5025571;27;19981;-85
2022/10/06 06:13:18;;;;;;;;;;;12.50;99.90;;;;;;5046689;28;20297;-85
2022/10/06 06:16:00;;;;;;;;;;;12.50;99.90;;;;;;5045224;28;19908;-85
2022/10/06 06:18:27;;;;;;;;;;;12.60;99.90;;;;;;5047280;28;20027;-85
2022/10/06 06:20:58;;;;;;;;;;;12.70;99.90;;;;;;5029883;27;19969;-85
2022/10/06 06:23:24;;;;;;;;;;;12.70;99.90;;;;;;5046456;28;19909;-86
2022/10/06 06:26:00;;;;;;;;;;;12.70;99.90;;;;;;5043290;28;19961;-85
2022/10/06 06:28:27;;;;;;;;;;;12.80;99.90;;;;;;5046499;28;19915;-85
2022/10/06 06:31:06;;;;;;;;;;;12.80;99.90;;;;;;5044735;28;19913;-86
2022/10/06 06:33:36;;;;;;;;;;;12.80;99.90;;;;;;5029181;28;19913;-86
2022/10/06 06:36:19;;;;;;;;;;;12.90;99.90;;;;;;5043855;28;24066;-85
2022/10/06 06:38:46;;;;;;;;;;;12.90;99.90;;;;;;5042940;28;20046;-85
2022/10/06 06:41:22;;;;;;;;;;;12.80;99.90;;;;;;5041688;28;24074;-85
2022/10/06 06:43:51;;;;;;;;;;;12.90;99.90;;;;;;5036978;28;19916;-85
2022/10/06 06:46:37;;;;;;;;;;;12.90;99.90;;;;;;5043414;28;19911;-85
2022/10/06 06:49:12;;;;;;;;;;;12.90;99.90;;;;;;5042995;28;20527;-85
2022/10/06 06:51:43;;;;;;;;;;;12.90;99.90;;;;;;5044545;28;20040;-85
2022/10/06 06:54:10;;;;;;;;;;;13.00;99.90;;;;;;5037800;27;20378;-85
2022/10/06 06:56:41;;;;;;;;;;;13.10;99.90;;;;;;5137230;27;20378;-86
2022/10/06 06:59:12;;;;;;;;;;;13.20;99.90;;;;;;5050591;28;20244;-86
2022/10/06 07:01:44;;;;;;;;;;;13.30;99.90;;;;;;5034153;28;19913;-86
2022/10/06 07:04:11;;;;;;;;;;;13.30;99.90;;;;;;5033506;28;25143;-85
2022/10/06 07:06:38;;;;;;;;;;;13.30;99.90;;;;;;5050298;28;19905;-85
2022/10/06 07:09:06;;;;;;;;;;;13.30;99.90;;;;;;5047765;28;20014;-85
2022/10/06 07:11:33;;;;;;;;;;;13.40;99.90;;;;;;5033617;28;19924;-86
2022/10/06 07:14:01;;;;;;;;;;;13.50;99.90;;;;;;5049885;28;24058;-86
2022/10/06 07:25:10;;;;;;;;;;;13.60;99.90;;;;;;5050258;28;20407;-86
2022/10/06 07:27:43;;;;;;;;;;;13.50;99.90;;;;;;5050267;28;20045;-86
2022/10/06 07:30:13;;;;;;;;;;;13.30;99.90;;;;;;5050099;28;25097;-86
2022/10/06 07:32:39;;;;;;;;;;;13.20;99.90;;;;;;5050020;28;19981;-86
2022/10/06 07:35:09;;;;;;;;;;;13.00;99.90;;;;;;5049494;28;19909;-86
2022/10/06 07:37:35;;;;;;;;;;;13.00;99.90;;;;;;5049562;28;19930;-86
2022/10/06 07:40:01;;;;;;;;;;;13.10;99.90;;;;;;5045291;28;24105;-86
2022/10/06 07:42:29;;;;;;;;;;;13.50;99.90;;;;;;5049354;28;19958;-85
2022/10/06 07:47:40;;;;;;;;;;;13.80;99.90;;;;;;5049046;28;19908;-85
2022/10/06 07:50:06;;;;;;;;;;;13.70;99.90;;;;;;5049850;28;19999;-87
2022/10/06 07:52:35;;;;;;;;;;;13.80;99.90;;;;;;5049642;28;20324;-85
2022/10/06 07:55:01;;;;;;;;;;;13.70;99.90;;;;;;5046885;28;20004;-86
2022/10/06 07:58:01;;;;;;;;;;;13.80;99.90;;;;;;5049516;28;19912;-86
2022/10/06 08:00:27;;;;;;;;;;;14.00;99.90;;;;;;5049704;28;19957;-86
2022/10/06 08:02:56;;;;;;;;;;;13.90;99.90;;;;;;5036895;28;19909;-86
2022/10/06 08:05:21;;;;;;;;;;;13.80;99.90;;;;;;5048778;28;20064;-86
2022/10/06 08:07:47;;;;;;;;;;;13.90;99.90;;;;;;5034401;28;20280;-85
2022/10/06 08:10:12;;;;;;;;;;;14.00;99.90;;;;;;5049224;28;19957;-86
2022/10/06 08:12:39;;;;;;;;;;;14.10;99.90;;;;;;5049137;28;19944;-86
2022/10/06 08:15:06;;;;;;;;;;;14.30;99.90;;;;;;5049214;27;19909;-86
2022/10/06 08:17:32;;;;;;;;;;;14.50;99.90;;;;;;5050630;28;19958;-86
2022/10/06 08:19:58;;;;;;;;;;;14.70;99.90;;;;;;5039067;28;19909;-86
2022/10/06 08:22:28;;;;;;;;;;;14.90;99.90;;;;;;5049703;28;20003;-86
2022/10/06 08:24:57;;;;;;;;;;;15.20;99.90;;;;;;5037242;28;20565;-87
2022/10/06 08:27:23;;;;;;;;;;;15.30;99.90;;;;;;5050338;28;20032;-86
2022/10/06 08:29:49;;;;;;;;;;;15.20;99.90;;;;;;5034906;28;19996;-87
2022/10/06 08:32:19;;;;;;;;;;;15.20;99.90;;;;;;5049784;28;20162;-86
2022/10/06 08:34:45;;;;;;;;;;;15.30;99.90;;;;;;5049375;28;20026;-86
2022/10/06 08:37:10;;;;;;;;;;;15.10;99.90;;;;;;5050015;28;19908;-87
2022/10/06 08:39:36;;;;;;;;;;;15.10;99.90;;;;;;5050002;28;20032;-87
2022/10/06 08:42:02;;;;;;;;;;;15.10;99.90;;;;;;5049636;28;20467;-86
2022/10/06 08:44:31;;;;;;;;;;;15.00;99.90;;;;;;5049634;28;20090;-86
2022/10/06 08:47:01;;;;;;;;;;;15.00;99.90;;;;;;5048632;28;20071;-86
2022/10/06 08:49:32;;;;;;;;;;;14.90;99.90;;;;;;5049378;28;20138;-86
2022/10/06 08:52:13;;;;;;;;;;;14.60;99.90;;;;;;5049573;28;21064;-87
2022/10/06 08:54:39;;;;;;;;;;;14.50;99.90;;;;;;5049489;28;20037;-87
2022/10/06 08:57:13;;;;;;;;;;;14.90;99.90;;;;;;5030493;28;19996;-86
2022/10/06 08:59:40;;;;;;;;;;;15.40;99.90;;;;;;5049802;28;20040;-87
2022/10/06 09:02:17;;;;;;;;;;;15.80;99.90;;;;;;5040397;28;20514;-88
2022/10/06 09:04:43;;;;;;;;;;;15.80;99.90;;;;;;5050024;28;20490;-87
2022/10/06 09:07:14;;;;;;;;;;;15.70;99.90;;;;;;5049817;28;20108;-86
2022/10/06 09:10:00;;;;;;;8.50;1.50;;;15.60;99.90;;;;;;5033446;28;20517;-87
2022/10/06 09:12:37;;;;;;;9.20;1.77;;;16.00;99.90;;;;;;5032773;28;20041;-87
2022/10/06 09:15:18;;;;;;;10.23;2.33;;;16.60;99.90;;;;;;5049543;28;20383;-86
2022/10/06 09:17:53;;;;;;;13.68;2.45;;;17.50;99.90;;;;;;5032747;28;20029;-87
2022/10/06 09:22:21;;;;;;;7.45;2.28;;;19.40;99.90;;;;;;5078221;28;20429;-85
2022/10/06 09:24:50;;;;;;;9.40;1.35;;;19.60;99.90;;;;;;5058443;28;20083;-84
2022/10/06 09:27:27;;;;;;;11.30;1.70;;;19.30;99.90;;;;;;5046807;28;20047;-81
2022/10/06 09:29:53;;;;;;;;;;;18.30;99.90;;;;;;5057084;28;20423;-80
2022/10/06 09:32:21;;;;;;;9.00;1.80;;;17.30;99.90;;;;;;5060825;28;20396;-85
2022/10/06 09:35:19;;;;;;;11.50;2.33;;;16.50;99.90;;;;;;5042013;28;20538;-86
2022/10/06 09:38:02;;;;;;;;;;;16.70;99.90;;;;;;5043591;28;20314;-88
2022/10/06 09:40:35;;;;;;;;;;;17.00;99.90;;;;;;5061272;28;20137;-88
2022/10/06 09:43:37;;;;;;;8.60;2.80;;;17.20;99.90;;;;;;5026898;28;20033;-88
2022/10/06 09:46:21;;;;;;;;;;;17.50;99.90;;;;;;5005472;28;19989;-86
2022/10/06 09:48:47;;;;;;;;;;;18.00;99.90;;;;;;5058389;28;20408;-87
2022/10/06 09:51:14;;;;;;;;;;;18.50;99.90;;;;;;5049379;28;20071;-86
2022/10/06 09:53:41;;;;;;;;;;;18.40;99.90;;;;;;5053953;28;20056;-86
2022/10/06 09:56:11;;;;;;;;;;;18.80;99.90;;;;;;5048853;28;20140;-87
2022/10/06 09:58:38;;;;;;;;;;;18.70;99.90;;;;;;5064795;28;20232;-86
2022/10/06 10:01:08;;;;;;;;;;;19.00;99.90;;;;;;5048036;28;20065;-87
2022/10/06 10:03:41;;;;;;;;;;;19.10;99.90;;;;;;5048487;28;20048;-87
2022/10/06 10:06:28;;;;;;;;;;;19.20;99.90;;;;;;5049637;28;20048;-87
2022/10/06 10:09:13;;;;;;;;;;;19.50;99.90;;;;;;5079421;28;20426;-87
2022/10/06 10:14:23;;;;;;;;;;;19.70;99.90;;;;;;5081673;28;20068;-88
2022/10/06 10:20:23;;;;;;;;;;;20.80;99.90;;;;;;5049154;28;20162;-86
2022/10/06 10:22:49;;;;;;;;;;;21.40;99.90;;;;;;5047759;28;19913;-87
2022/10/06 10:25:25;;;;;;;;;;;21.90;99.90;;;;;;5069610;28;19916;-87
2022/10/06 10:27:57;;;;;;;;;;;22.40;99.90;;;;;;5058475;28;19908;-87
2022/10/06 10:30:22;;;;;;;;;;;21.30;99.90;;;;;;5056966;28;20496;-87
2022/10/06 10:32:57;;;;;;;;;;;20.40;99.90;;;;;;5053802;28;19997;-87
2022/10/06 10:35:36;;;;;;;;;;;19.90;99.90;;;;;;5054348;28;20146;-87
2022/10/06 10:38:17;;;;;;;;;;;19.70;99.90;;;;;;5033290;28;20015;-87
2022/10/06 10:40:50;;;;;;;;;;;19.40;99.90;;;;;;5043653;28;20083;-88
2022/10/06 10:43:21;;;;;;;;;;;19.10;99.90;;;;;;5042948;28;20072;-86
2022/10/06 10:45:58;;;;;;;;;;;19.00;99.90;;;;;;5066690;28;20046;-88
2022/10/06 10:48:34;;;;;;;;;;;19.20;99.90;;;;;;5042809;28;19967;-87
2022/10/06 10:51:00;;;;;;;;;;;18.70;99.90;;;;;;5050843;28;20100;-87
2022/10/06 10:53:29;;;;;;;;;;;18.20;99.90;;;;;;5059120;28;20039;-87
2022/10/06 10:55:55;;;;;;;;;;;18.30;99.90;;;;;;5045855;28;20357;-87
2022/10/06 10:58:31;;;;;;;;;;;18.80;99.90;;;;;;5046756;28;20037;-87
2022/10/06 11:01:01;;;;;;;;;;;19.00;99.90;;;;;;5044030;28;20030;-88
2022/10/06 11:03:26;;;;;;;;;;;19.40;99.90;;;;;;5029688;28;20082;-86
2022/10/06 11:05:52;;;;;;;;;;;20.00;99.90;;;;;;5028788;28;20016;-87
2022/10/06 11:08:23;;;;;;;;;;;20.40;99.90;;;;;;5029495;28;20057;-88
2022/10/06 11:10:50;;;;;;;;;;;20.10;99.90;;;;;;5045925;28;20468;-87
2022/10/06 11:13:25;;;;;;;;;;;19.70;99.90;;;;;;5046079;28;20043;-87
2022/10/06 11:16:04;;;;;;;;;;;20.10;99.90;;;;;;5044155;28;20119;-87
2022/10/06 11:18:46;;;;;;;;;;;20.80;99.90;;;;;;5023266;28;20105;-87
2022/10/06 11:21:15;;;;;;;;;;;21.60;99.90;;;;;;5029852;28;20155;-86
2022/10/06 11:23:50;;;;;;;;;;;21.80;99.90;;;;;;5017724;28;20032;-86
2022/10/06 11:26:37;;;;;;;;;;;21.90;99.50;;;;;;5033285;28;20083;-87
2022/10/06 11:29:03;;;;;;;;;;;21.60;99.90;;;;;;5050812;28;20017;-86
2022/10/06 11:31:29;;;;;;;;;;;21.70;98.70;;;;;;5057026;28;20057;-87
2022/10/06 11:33:57;;;;;;;;;;;22.30;98.10;;;;;;5065854;28;20101;-87
2022/10/06 11:36:22;;;;;;;;;;;22.60;97.40;;;;;;5066623;28;20050;-87
2022/10/06 11:38:57;;;;;;;;;;;22.20;97.60;;;;;;5043492;28;20092;-87
2022/10/06 11:41:27;;;;;;;;;;;21.70;96.00;;;;;;5034153;28;20059;-87
2022/10/06 11:43:53;;;;;;;;;;;21.60;97.20;;;;;;5045288;28;20087;-87
2022/10/06 11:46:27;;;;;;;;;;;21.50;97.10;;;;;;5050155;28;19912;-87
2022/10/06 11:49:13;;;;;;;;;;;21.20;94.80;;;;;;5058742;28;20022;-89
2022/10/06 11:51:38;;;;;;;;;;;21.20;97.10;;;;;;5029875;28;20026;-88
2022/10/06 11:54:24;;;;;;;;;;;20.70;98.30;;;;;;5030001;28;20044;-87
2022/10/06 11:56:49;;;;;;;;;;;20.40;97.40;;;;;;5028745;28;20037;-86
2022/10/06 11:59:25;;;;;;;;;;;20.20;96.30;;;;;;5047660;28;20284;-87
2022/10/06 12:01:51;;;;;;;;;;;20.60;96.30;;;;;;5049525;28;20495;-87
2022/10/06 12:04:17;;;;;;;;;;;20.70;95.90;;;;;;5031702;28;20026;-87
2022/10/06 12:09:29;;;;;;;;;;;20.50;96.70;;;;;;5045792;28;20036;-86
2022/10/06 12:12:28;;;;;;;11.60;2.00;;;21.30;96.20;;;;;;5106882;27;20125;-86
2022/10/06 12:15:20;;;;;;;7.10;1.67;;;21.50;96.50;;;;;;5091189;28;20021;-86
2022/10/06 12:18:11;;;;;;;8.48;2.35;;;20.80;96.40;;;;;;5106228;28;20122;-86
2022/10/06 12:20:58;;;;;;;8.52;1.40;;;20.80;93.60;;;;;;5089469;28;20035;-86
2022/10/06 12:24:02;;;;;;;4.28;1.10;;;20.70;94.80;;;;;;5092531;28;20051;-86
2022/10/06 12:26:49;;;;;;;4.70;1.50;;;20.40;92.10;;;;;;5096270;28;20055;-86
2022/10/06 12:29:33;;;;;;;7.13;1.10;;;20.20;91.10;;;;;;5102749;28;20035;-86
2022/10/06 12:31:59;;;;;;;6.38;1.30;;;20.20;91.20;;;;;;5101640;28;20039;-86
2022/10/06 12:34:41;;;;;;;3.97;1.30;;;20.60;92.00;;;;;;5106126;28;20024;-86
2022/10/06 12:37:31;;;;;;;6.47;1.48;;;20.60;92.90;;;;;;5072243;28;20020;-86
2022/10/06 12:40:36;;;;;;;7.88;1.35;;;19.90;94.80;;;;;;5089008;28;20028;-86
2022/10/06 12:43:16;;;;;;;7.75;1.60;;;19.90;96.00;;;;;;5084281;28;20118;-86
2022/10/06 12:45:56;;;;;;;3.47;0.98;;;19.60;95.10;;;;;;5085709;28;20538;-86
2022/10/06 12:48:38;;;;;;;4.03;1.15;;;19.50;94.70;;;;;;5102285;28;20390;-86
2022/10/06 12:51:44;;;;;;;10.60;1.90;;;19.80;94.90;;;;;;5076914;28;20028;-86
2022/10/06 12:54:19;;;;;;;7.72;1.63;;;19.30;95.10;;;;;;5105424;28;20027;-86
2022/10/06 12:57:12;;;;;;;9.23;1.50;;;19.00;97.00;;;;;;5086681;28;20368;-87
2022/10/06 12:59:39;;;;;;;8.65;2.00;;;18.60;97.70;;;;;;5087025;28;20082;-87
2022/10/06 13:02:15;;;;;;;7.18;1.52;;;18.10;97.80;;;;;;5103815;28;20028;-87
2022/10/06 13:04:44;;;;;;;5.93;1.67;;;18.20;98.20;;;;;;5104650;28;20097;-87
2022/10/06 13:07:12;;;;;;;9.07;1.80;;;17.80;98.60;;;;;;5103474;28;20035;-86
2022/10/06 13:09:38;;;;;;;;;;;17.60;99.60;;;;;;5105628;28;20035;-87
2022/10/06 13:12:23;;;;;;;;;;;17.10;99.00;;;;;;5088496;28;20031;-87
2022/10/06 13:15:22;;;;;;;;;;;16.70;99.30;;;;;;5133665;27;20064;-87
2022/10/06 13:17:51;;;;;;;;;;;16.50;99.90;;;;;;5079914;28;20083;-87
2022/10/06 13:20:18;;;;;;;;;;;16.50;99.90;;;;;;5098171;28;20034;-86
2022/10/06 13:22:43;;;;;;;;;;;16.30;99.90;;;;;;5083333;28;20020;-86
2022/10/06 13:25:14;;;;;;;;;;;16.20;99.90;;;;;;5088918;28;20031;-87
2022/10/06 13:27:47;;;;;;;;;;;16.30;99.90;;;;;;5092074;28;20388;-87
2022/10/06 13:30:17;;;;;;;;;;;16.30;99.20;;;;;;5070074;28;19915;-88
2022/10/06 13:32:42;;;;;;;;;;;16.30;99.20;;;;;;5102041;28;19915;-89
2022/10/06 13:35:10;;;;;;;;;;;16.30;99.30;;;;;;5073339;28;20027;-86
2022/10/06 13:37:36;;;;;;;;;;;16.30;99.90;;;;;;5087591;28;20032;-86
2022/10/06 13:40:12;;;;;;;;;;;16.30;99.90;;;;;;5091529;28;19915;-87
2022/10/06 13:42:38;;;;;;;;;;;16.20;98.70;;;;;;5086392;28;20025;-87
2022/10/06 13:45:05;;;;;;;;;;;16.10;98.80;;;;;;5077408;28;19908;-87
2022/10/06 13:47:32;;;;;;;;;;;16.00;98.80;;;;;;5074654;28;20046;-87
2022/10/06 13:50:04;;;;;;;;;;;15.90;98.70;;;;;;5085365;28;20459;-86
2022/10/06 13:52:45;;;;;;;;;;;15.90;97.80;;;;;;5087320;28;20427;-87
2022/10/06 13:55:21;;;;;;;;;;;15.80;97.30;;;;;;5089154;28;20476;-86
2022/10/06 13:58:06;;;;;;;;;;;15.80;99.00;;;;;;5108456;28;20028;-87
2022/10/06 14:00:33;;;;;;;;;;;15.80;98.60;;;;;;5083621;28;20032;-87
2022/10/06 14:03:05;;;;;;;;;;;15.70;99.20;;;;;;5091527;28;20033;-86
2022/10/06 14:05:35;;;;;;;;;;;15.70;99.80;;;;;;5079518;28;20069;-86
2022/10/06 14:08:03;;;;;;;;;;;15.70;99.20;;;;;;5076945;28;20038;-87
2022/10/06 14:10:30;;;;;;;;;;;15.70;99.50;;;;;;5087565;28;20294;-88
2022/10/06 14:12:57;;;;;;;;;;;15.80;99.30;;;;;;5084532;28;20071;-87
2022/10/06 14:15:28;;;;;;;;;;;15.70;98.90;;;;;;5070948;28;20788;-86
2022/10/06 14:17:55;;;;;;;;;;;15.70;99.90;;;;;;5084808;28;20032;-87
2022/10/06 14:20:33;;;;;;;;;;;15.60;99.40;;;;;;5076722;28;20350;-87
2022/10/06 14:22:59;;;;;;;;;;;15.70;99.70;;;;;;5087960;28;20040;-87
2022/10/06 14:25:24;;;;;;;;;;;15.60;99.90;;;;;;5076036;28;20513;-87
2022/10/06 14:27:51;;;;;;;;;;;15.50;99.80;;;;;;5086658;28;20033;-87
2022/10/06 14:30:16;;;;;;;;;;;15.50;99.90;;;;;;5085448;28;20136;-86
2022/10/06 14:32:42;;;;;;;;;;;15.60;99.90;;;;;;5103831;28;20519;-86
2022/10/06 14:35:11;;;;;;;;;;;15.50;99.90;;;;;;5082952;28;20020;-86
2022/10/06 14:37:36;;;;;;;;;;;15.50;99.90;;;;;;5088118;28;20031;-86
2022/10/06 14:40:02;;;;;;;;;;;15.50;99.90;;;;;;5086465;28;20049;-87
2022/10/06 14:42:27;;;;;;;;;;;15.40;99.90;;;;;;5082168;28;20101;-87
2022/10/06 14:44:53;;;;;;;;;;;15.40;99.90;;;;;;5085755;28;19913;-87
2022/10/06 14:47:19;;;;;;;;;;;15.30;99.90;;;;;;5085242;28;20031;-87
2022/10/06 14:49:44;;;;;;;;;;;15.40;99.90;;;;;;5085969;28;20434;-87
2022/10/06 14:52:10;;;;;;;;;;;15.30;99.90;;;;;;5085593;28;20031;-87
2022/10/06 14:54:37;;;;;;;;;;;15.30;99.90;;;;;;5074759;28;20106;-87
2022/10/06 14:57:03;;;;;;;;;;;15.40;99.90;;;;;;5076868;28;20519;-86